Gibson Island, Maryland
Current Conditions -  °F | °C
As of 2:43 AM on Wednesday 22 Oct 2014 (Local Time) from KNAK Reporting Station
Overcast Overcast  
Wind Chill: 55°   Ceiling: 6500
Heat Index: 55°   Visibility: 8mi
Dew Point: 52°   Wind: 10mph
Humidity: 89%   Direction: 320°NW
Pressure: 29.84"   Gusts: NA
Location:  39.08°N, 76.43°W
Report Text: KNAK 220643Z AUTO 32009KT 8SM SCT022 OVC065 13/11 A2984 RMK AO2 RAE26 P0001 T01280111
Loading
Personal Weather Stations






























Interactive Weather Map
Tropical Storm Tracking
New forecast layout! Learn more

10-Day Weather Forecast

Advertisements
Track Severe Weather on mobile